Trace, Kentucky
Current Conditions -  °F | °C
As of 12:55 AM on Thursday 18 Dec 2014 (Local Time) from KFGX Reporting Station
Overcast Overcast  
Wind Chill: 21°   Ceiling: 1800
Heat Index: 28°   Visibility: 10mi
Dew Point: 22°   Wind: 7mph
Humidity: 78%   Direction: 320°NW
Pressure: 30.26"   Gusts: NA
Location:  38.4929°N, 83.3898°W
Report Text: KFGX 180555Z AUTO 32006KT 10SM OVC018 M02/M05 A3026 RMK AO2 T10211055 11003 21021 400231021
Loading
Personal Weather Stations






























Interactive Weather Map New forecast layout! Learn more

10-Day Weather Forecast

Advertisements
Track Severe Weather on mobile